Terminal Aerodrome Forecast
Issued by NWS Burlington, VT

Home | Current Version | Previous Version | Text Only | Print | Product List | Glossary On
Versions: 1 2 3 4 5 6 7 8 9 10 11 12 13 14 15 16 17 18
000
FTUS41 KBTV 292334
TAFBTV
TAF
KBTV 292334Z 3000/3024 18008G17KT P6SM SKC
     FM300400 19010G21KT P6SM BKN150
     FM301000 19018G29KT P6SM VCSH OVC060
     FM301500 19015G25KT P6SM VCSH OVC035
     FM302000 23015G28KT P6SM VCSH OVC035=

USA.gov is the U.S. government's official web portal to all federal, state and local government web resources and services.